Time,TemperatureF,DewpointF,PressureIn,WindDirection,WindDirectionDegrees,WindSpeedMPH,WindSpeedGustMPH,Humidity,HourlyPrecipIn,Conditions,Clouds,dailyrainin,SoftwareType,DateUTC
2013-02-09 00:00:00,62.7,61.5,30.05,WNW,302,1.0,1.0,96,0.00,,,0.00,VWS V14.01,2013-02-09 06:00:00,
2013-02-09 00:05:00,62.8,61.7,30.05,WNW,300,1.0,1.0,96,0.00,,,0.00,VWS V14.01,2013-02-09 06:05:00,
2013-02-09 00:10:00,62.8,61.7,30.05,WNW,301,1.0,1.0,96,0.00,,,0.00,VWS V14.01,2013-02-09 06:10:00,
2013-02-09 00:15:00,62.7,61.5,30.06,WNW,302,1.0,2.0,96,0.00,,,0.00,VWS V14.01,2013-02-09 06:15:00,
2013-02-09 00:20:00,62.7,61.5,30.06,WNW,297,2.0,2.0,96,0.00,,,0.00,VWS V14.01,2013-02-09 06:20:00,
2013-02-09 00:25:00,62.5,61.3,30.05,WNW,296,0.0,2.0,96,0.00,,,0.00,VWS V14.01,2013-02-09 06:25:00,
2013-02-09 00:30:00,62.5,61.6,30.05,WNW,301,0.0,0.0,97,0.00,,,0.00,VWS V14.01,2013-02-09 06:30:00,
2013-02-09 00:35:00,62.5,61.6,30.05,WNW,300,1.0,1.0,97,0.00,,,0.00,VWS V14.01,2013-02-09 06:35:00,
2013-02-09 00:40:00,62.4,61.5,30.05,NW,310,1.0,2.0,97,0.00,,,0.00,VWS V14.01,2013-02-09 06:40:00,
2013-02-09 00:45:00,62.3,61.4,30.05,NW,307,0.0,2.0,97,0.00,,,0.00,VWS V14.01,2013-02-09 06:45:00,
2013-02-09 00:50:00,62.3,61.4,30.05,NW,307,0.0,2.0,97,0.00,,,0.00,VWS V14.01,2013-02-09 06:50:00,
2013-02-09 00:55:00,62.2,61.3,30.05,NW,307,1.0,2.0,97,0.00,,,0.00,VWS V14.01,2013-02-09 06:55:00,
2013-02-09 01:00:00,62.3,61.4,30.05,NW,307,0.0,1.0,97,0.00,,,0.00,VWS V14.01,2013-02-09 07:00:00,
2013-02-09 01:05:00,62.4,61.5,30.05,NW,307,1.0,1.0,97,0.00,,,0.00,VWS V14.01,2013-02-09 07:05:00,
2013-02-09 01:10:00,62.2,61.3,30.05,NW,307,1.0,1.0,97,0.00,,,0.00,VWS V14.01,2013-02-09 07:10:00,
2013-02-09 01:15:00,62.2,61.3,30.04,NW,305,1.0,2.0,97,0.00,,,0.00,VWS V14.01,2013-02-09 07:15:00,
2013-02-09 01:20:00,62.3,61.4,30.04,NW,305,1.0,2.0,97,0.00,,,0.00,VWS V14.01,2013-02-09 07:20:00,
2013-02-09 01:25:00,62.2,61.3,30.04,NW,307,1.0,2.0,97,0.00,,,0.00,VWS V14.01,2013-02-09 07:25:00,
2013-02-09 01:30:00,62.1,61.2,30.04,WNW,302,0.0,0.0,97,0.00,,,0.00,VWS V14.01,2013-02-09 07:30:00,
2013-02-09 01:35:00,61.9,61.0,30.04,WNW,302,0.0,1.0,97,0.00,,,0.00,VWS V14.01,2013-02-09 07:35:00,
2013-02-09 01:40:00,61.7,60.8,30.05,WNW,302,1.0,2.0,97,0.00,,,0.00,VWS V14.01,2013-02-09 07:40:00,
2013-02-09 01:45:00,61.6,60.7,30.05,NW,307,1.0,2.0,97,0.00,,,0.00,VWS V14.01,2013-02-09 07:45:00,
2013-02-09 01:50:00,61.4,60.5,30.05,NW,307,1.0,2.0,97,0.00,,,0.00,VWS V14.01,2013-02-09 07:50:00,
2013-02-09 01:55:00,61.3,60.4,30.05,NW,308,1.0,2.0,97,0.00,,,0.00,VWS V14.01,2013-02-09 07:55:00,
2013-02-09 02:00:00,61.2,60.3,30.05,WNW,302,1.0,2.0,97,0.00,,,0.00,VWS V14.01,2013-02-09 08:00:00,
2013-02-09 02:05:00,61.1,60.2,30.05,NW,307,1.0,2.0,97,0.00,,,0.00,VWS V14.01,2013-02-09 08:05:00,
2013-02-09 02:10:00,60.9,60.0,30.05,WNW,300,0.0,2.0,97,0.00,,,0.00,VWS V14.01,2013-02-09 08:10:00,
2013-02-09 02:15:00,60.9,60.0,30.05,WNW,298,2.0,3.0,97,0.00,,,0.00,VWS V14.01,2013-02-09 08:15:00,
2013-02-09 02:20:00,60.9,60.0,30.05,WNW,290,2.0,3.0,97,0.00,,,0.00,VWS V14.01,2013-02-09 08:20:00,
2013-02-09 02:25:00,60.9,60.0,30.05,WNW,289,1.0,3.0,97,0.00,,,0.00,VWS V14.01,2013-02-09 08:25:00,
2013-02-09 02:30:00,60.8,60.0,30.05,WNW,293,1.0,1.0,97,0.00,,,0.00,VWS V14.01,2013-02-09 08:30:00,
2013-02-09 02:35:00,60.8,60.0,30.05,NW,312,1.0,2.0,97,0.00,,,0.00,VWS V14.01,2013-02-09 08:35:00,
2013-02-09 02:40:00,60.8,60.0,30.05,WNW,291,1.0,2.0,97,0.00,,,0.00,VWS V14.01,2013-02-09 08:40:00,
2013-02-09 02:45:00,60.9,60.3,30.05,WNW,298,1.0,3.0,98,0.00,,,0.00,VWS V14.01,2013-02-09 08:45:00,
2013-02-09 02:50:00,61.1,60.5,30.05,NW,305,0.0,3.0,98,0.00,,,0.00,VWS V14.01,2013-02-09 08:50:00,
2013-02-09 02:55:00,61.1,60.5,30.05,WNW,297,1.0,3.0,98,0.00,,,0.00,VWS V14.01,2013-02-09 08:55:00,
2013-02-09 03:00:00,61.2,60.6,30.05,NW,308,1.0,2.0,98,0.00,,,0.00,VWS V14.01,2013-02-09 09:00:00,
2013-02-09 03:05:00,61.3,60.7,30.04,NW,314,1.0,3.0,98,0.00,,,0.00,VWS V14.01,2013-02-09 09:05:00,
2013-02-09 03:10:00,61.3,60.7,30.05,NW,307,1.0,3.0,98,0.00,,,0.00,VWS V14.01,2013-02-09 09:10:00,
2013-02-09 03:15:00,61.2,60.6,30.05,WNW,300,0.0,3.0,98,0.00,,,0.00,VWS V14.01,2013-02-09 09:15:00,
2013-02-09 03:20:00,61.1,60.5,30.05,WNW,302,1.0,3.0,98,0.00,,,0.00,VWS V14.01,2013-02-09 09:20:00,
2013-02-09 03:25:00,61.1,60.5,30.05,WNW,300,1.0,3.0,98,0.00,,,0.00,VWS V14.01,2013-02-09 09:25:00,
2013-02-09 03:30:00,61.0,60.4,30.05,WNW,301,0.0,1.0,98,0.00,,,0.00,VWS V14.01,2013-02-09 09:30:00,
2013-02-09 03:35:00,60.9,60.3,30.05,NW,307,1.0,3.0,98,0.00,,,0.00,VWS V14.01,2013-02-09 09:35:00,
2013-02-09 03:40:00,60.8,60.0,30.05,WNW,300,2.0,3.0,97,0.00,,,0.00,VWS V14.01,2013-02-09 09:40:00,
2013-02-09 03:45:00,60.7,59.8,30.05,NW,305,0.0,3.0,97,0.00,,,0.00,VWS V14.01,2013-02-09 09:45:00,
2013-02-09 03:50:00,60.6,60.0,30.05,NW,309,2.0,3.0,98,0.00,,,0.00,VWS V14.01,2013-02-09 09:50:00,
2013-02-09 03:55:00,60.5,59.7,30.05,NW,307,1.0,3.0,97,0.00,,,0.00,VWS V14.01,2013-02-09 09:55:00,
2013-02-09 04:00:00,60.4,59.5,30.06,WNW,288,1.0,1.0,97,0.00,,,0.00,VWS V14.01,2013-02-09 10:00:00,
2013-02-09 04:05:00,60.3,59.5,30.06,WNW,290,1.0,2.0,97,0.00,,,0.00,VWS V14.01,2013-02-09 10:05:00,
2013-02-09 04:10:00,60.2,59.3,30.06,WNW,291,0.0,3.0,97,0.00,,,0.00,VWS V14.01,2013-02-09 10:10:00,
2013-02-09 04:15:00,60.1,59.2,30.06,WNW,300,1.0,3.0,97,0.00,,,0.00,VWS V14.01,2013-02-09 10:15:00,
2013-02-09 04:20:00,60.1,59.5,30.06,NW,307,1.0,3.0,98,0.00,,,0.00,VWS V14.01,2013-02-09 10:20:00,
2013-02-09 04:25:00,60.0,59.2,30.07,NW,319,4.0,4.0,97,0.00,,,0.00,VWS V14.01,2013-02-09 10:25:00,
2013-02-09 04:30:00,60.0,59.2,30.07,WNW,293,2.0,2.0,97,0.00,,,0.00,VWS V14.01,2013-02-09 10:30:00,
2013-02-09 04:35:00,59.9,59.0,30.07,WNW,289,5.0,5.0,97,0.00,,,0.00,VWS V14.01,2013-02-09 10:35:00,
2013-02-09 04:40:00,59.9,59.0,30.07,WNW,291,6.0,8.0,97,0.00,,,0.00,VWS V14.01,2013-02-09 10:40:00,
2013-02-09 04:45:00,59.7,58.8,30.08,North,6,2.0,8.0,97,0.00,,,0.00,VWS V14.01,2013-02-09 10:45:00,
2013-02-09 04:50:00,59.6,58.8,30.08,NW,317,3.0,8.0,97,0.00,,,0.00,VWS V14.01,2013-02-09 10:50:00,
2013-02-09 04:55:00,59.6,58.8,30.08,WNW,295,5.0,8.0,97,0.00,,,0.00,VWS V14.01,2013-02-09 10:55:00,
2013-02-09 05:00:00,59.5,58.7,30.08,North,4,3.0,3.0,97,0.00,,,0.00,VWS V14.01,2013-02-09 11:00:00,
2013-02-09 05:05:00,59.5,58.9,30.08,NW,317,4.0,6.0,98,0.00,,,0.00,VWS V14.01,2013-02-09 11:05:00,
2013-02-09 05:10:00,59.4,58.5,30.09,WNW,301,3.0,6.0,97,0.00,,,0.00,VWS V14.01,2013-02-09 11:10:00,
2013-02-09 05:15:00,59.3,58.5,30.09,NW,311,3.0,7.0,97,0.00,,,0.00,VWS V14.01,2013-02-09 11:15:00,
2013-02-09 05:20:00,59.2,58.3,30.09,NW,306,4.0,7.0,97,0.00,,,0.00,VWS V14.01,2013-02-09 11:20:00,
2013-02-09 05:25:00,59.1,58.2,30.09,NW,314,3.0,7.0,97,0.00,,,0.00,VWS V14.01,2013-02-09 11:25:00,
2013-02-09 05:30:00,59.0,58.2,30.09,WNW,288,4.0,5.0,97,0.00,,,0.00,VWS V14.01,2013-02-09 11:30:00,
2013-02-09 05:35:00,59.0,58.2,30.09,NW,316,4.0,8.0,97,0.00,,,0.00,VWS V14.01,2013-02-09 11:35:00,
2013-02-09 05:40:00,58.8,58.0,30.10,NNW,335,3.0,8.0,97,0.00,,,0.00,VWS V14.01,2013-02-09 11:40:00,
2013-02-09 05:45:00,58.8,58.0,30.10,NW,308,4.0,8.0,97,0.00,,,0.00,VWS V14.01,2013-02-09 11:45:00,
2013-02-09 05:50:00,58.8,58.0,30.10,NW,315,4.0,8.0,97,0.00,,,0.00,VWS V14.01,2013-02-09 11:50:00,
2013-02-09 05:55:00,58.8,58.0,30.10,NW,316,3.0,8.0,97,0.00,,,0.00,VWS V14.01,2013-02-09 11:55:00,
2013-02-09 06:00:00,58.7,57.8,30.10,NNW,343,5.0,5.0,97,0.00,,,0.00,VWS V14.01,2013-02-09 12:00:00,
2013-02-09 06:05:00,58.6,57.8,30.11,WNW,302,3.0,5.0,97,0.00,,,0.00,VWS V14.01,2013-02-09 12:05:00,
2013-02-09 06:10:00,58.6,57.8,30.11,NW,305,4.0,5.0,97,0.00,,,0.00,VWS V14.01,2013-02-09 12:10:00,
2013-02-09 06:15:00,58.6,57.8,30.11,WNW,302,4.0,5.0,97,0.01,,,0.01,VWS V14.01,2013-02-09 12:15:00,
2013-02-09 06:19:00,58.5,57.7,30.11,NW,312,4.0,5.0,97,0.01,,,0.01,VWS V14.01,2013-02-09 12:19:00,
2013-02-09 06:24:00,58.5,57.7,30.11,NW,321,3.0,5.0,97,0.01,,,0.01,VWS V14.01,2013-02-09 12:24:00,
2013-02-09 06:29:00,58.6,57.8,30.11,NW,314,2.0,2.0,97,0.01,,,0.01,VWS V14.01,2013-02-09 12:29:00,
2013-02-09 06:30:00,61.6,60.5,30.13,NW,312,4.0,11.0,96,0.01,,,0.01,VWS V14.01,2013-02-09 12:30:00,
2013-02-09 06:34:00,58.7,57.8,30.12,WNW,292,3.0,6.0,97,0.01,,,0.01,VWS V14.01,2013-02-09 12:34:00,
2013-02-09 06:39:00,58.7,57.8,30.12,WNW,302,2.0,6.0,97,0.01,,,0.01,VWS V14.01,2013-02-09 12:39:00,
2013-02-09 06:44:00,58.9,58.0,30.12,NW,308,4.0,6.0,97,0.01,,,0.01,VWS V14.01,2013-02-09 12:44:00,
2013-02-09 06:49:00,59.0,58.2,30.12,NNW,333,5.0,8.0,97,0.01,,,0.01,VWS V14.01,2013-02-09 12:49:00,
2013-02-09 06:54:00,59.3,58.5,30.12,NW,321,4.0,8.0,97,0.01,,,0.01,VWS V14.01,2013-02-09 12:54:00,
2013-02-09 06:59:00,59.5,58.7,30.12,NW,316,2.0,8.0,97,0.01,,,0.01,VWS V14.01,2013-02-09 12:59:00,
2013-02-09 07:00:00,64.5,62.1,30.14,NNW,347,5.0,10.0,92,0.00,,,0.01,VWS V14.01,2013-02-09 13:00:00,
2013-02-09 07:04:00,59.9,59.0,30.12,WNW,298,2.0,7.0,97,0.01,,,0.01,VWS V14.01,2013-02-09 13:04:00,
2013-02-09 07:09:00,60.3,59.5,30.13,NNW,328,4.0,8.0,97,0.01,,,0.01,VWS V14.01,2013-02-09 13:09:00,
2013-02-09 07:14:00,60.6,59.5,30.13,NNW,338,2.0,8.0,96,0.01,,,0.01,VWS V14.01,2013-02-09 13:14:00,
2013-02-09 07:19:00,60.9,59.8,30.13,NW,305,4.0,11.0,96,0.01,,,0.01,VWS V14.01,2013-02-09 13:19:00,
2013-02-09 07:24:00,61.2,60.0,30.13,North,359,4.0,11.0,96,0.01,,,0.01,VWS V14.01,2013-02-09 13:24:00,
2013-02-09 07:29:00,61.6,60.5,30.13,NW,312,4.0,11.0,96,0.01,,,0.01,VWS V14.01,2013-02-09 13:29:00,
2013-02-09 07:30:00,68.3,61.9,30.15,NNE,23,4.0,16.0,80,0.00,,,0.01,VWS V14.01,2013-02-09 13:30:00,
2013-02-09 07:35:00,61.9,60.5,30.13,WNW,301,3.0,7.0,95,0.00,,,0.01,VWS V14.01,2013-02-09 13:35:00,
2013-02-09 07:40:00,62.3,60.8,30.13,NNW,342,3.0,9.0,95,0.00,,,0.01,VWS V14.01,2013-02-09 13:40:00,
2013-02-09 07:45:00,62.8,61.3,30.13,NNE,13,5.0,9.0,95,0.00,,,0.01,VWS V14.01,2013-02-09 13:45:00,
2013-02-09 07:50:00,63.5,62.0,30.13,NNW,346,4.0,9.0,95,0.00,,,0.01,VWS V14.01,2013-02-09 13:50:00,
2013-02-09 07:55:00,64.1,62.3,30.13,NW,312,4.0,9.0,94,0.00,,,0.01,VWS V14.01,2013-02-09 13:55:00,
2013-02-09 08:00:00,64.6,62.2,30.14,NNW,328,4.0,5.0,92,0.00,,,0.01,VWS V14.01,2013-02-09 14:00:00,
2013-02-09 08:05:00,65.2,62.5,30.14,NW,321,5.0,8.0,91,0.00,,,0.01,VWS V14.01,2013-02-09 14:05:00,
2013-02-09 08:10:00,65.9,62.9,30.14,NW,316,2.0,8.0,90,0.00,,,0.01,VWS V14.01,2013-02-09 14:10:00,
2013-02-09 08:15:00,66.6,62.6,30.14,North,8,5.0,14.0,87,0.00,,,0.01,VWS V14.01,2013-02-09 14:15:00,
2013-02-09 08:20:00,67.3,62.0,30.14,NW,319,9.0,14.0,83,0.00,,,0.01,VWS V14.01,2013-02-09 14:20:00,
2013-02-09 08:25:00,67.9,61.9,30.14,NNW,343,7.0,16.0,81,0.00,,,0.01,VWS V14.01,2013-02-09 14:25:00,
2013-02-09 08:30:00,68.3,61.9,30.15,North,9,2.0,5.0,80,0.00,,,0.01,VWS V14.01,2013-02-09 14:30:00,
2013-02-09 08:35:00,68.4,61.6,30.15,NNW,338,10.0,17.0,79,0.00,,,0.01,VWS V14.01,2013-02-09 14:35:00,
2013-02-09 08:40:00,68.4,61.6,30.15,North,11,6.0,17.0,79,0.00,,,0.01,VWS V14.01,2013-02-09 14:40:00,
2013-02-09 08:45:00,68.6,61.8,30.15,NNE,12,6.0,17.0,79,0.00,,,0.01,VWS V14.01,2013-02-09 14:45:00,
2013-02-09 08:50:00,68.7,61.9,30.15,NNE,22,12.0,17.0,79,0.00,,,0.01,VWS V14.01,2013-02-09 14:50:00,
2013-02-09 08:55:00,68.7,61.6,30.16,NNE,13,15.0,17.0,78,0.00,,,0.01,VWS V14.01,2013-02-09 14:55:00,
2013-02-09 09:00:00,68.8,61.7,30.16,North,359,9.0,18.0,78,0.00,,,0.01,VWS V14.01,2013-02-09 15:00:00,
2013-02-09 09:05:00,69.2,61.7,30.15,NNW,348,12.0,18.0,77,0.00,,,0.01,VWS V14.01,2013-02-09 15:05:00,
2013-02-09 09:10:00,69.5,62.0,30.16,North,353,7.0,18.0,77,0.00,,,0.01,VWS V14.01,2013-02-09 15:10:00,
2013-02-09 09:15:00,69.6,61.3,30.16,NNW,336,7.0,18.0,75,0.00,,,0.01,VWS V14.01,2013-02-09 15:15:00,
2013-02-09 09:20:00,69.7,61.0,30.16,North,349,10.0,18.0,74,0.00,,,0.01,VWS V14.01,2013-02-09 15:20:00,
2013-02-09 09:25:00,70.0,61.3,30.16,NNE,30,13.0,18.0,74,0.00,,,0.01,VWS V14.01,2013-02-09 15:25:00,
2013-02-09 09:30:00,69.9,61.6,30.16,NNE,15,15.0,15.0,75,0.00,,,0.01,VWS V14.01,2013-02-09 15:30:00,
2013-02-09 09:35:00,70.1,61.8,30.16,NNW,348,13.0,16.0,75,0.00,,,0.01,VWS V14.01,2013-02-09 15:35:00,
2013-02-09 09:40:00,70.1,61.4,30.16,North,1,13.0,18.0,74,0.00,,,0.01,VWS V14.01,2013-02-09 15:40:00,
2013-02-09 09:45:00,70.1,61.4,30.17,North,350,11.0,18.0,74,0.00,,,0.01,VWS V14.01,2013-02-09 15:45:00,
2013-02-09 09:50:00,70.4,62.1,30.16,NNW,347,12.0,18.0,75,0.00,,,0.01,VWS V14.01,2013-02-09 15:50:00,
2013-02-09 09:55:00,70.6,61.9,30.16,NE,46,9.0,18.0,74,0.00,,,0.01,VWS V14.01,2013-02-09 15:55:00,
2013-02-09 10:00:00,70.3,62.0,30.16,NE,34,13.0,15.0,75,0.00,,,0.01,VWS V14.01,2013-02-09 16:00:00,
2013-02-09 10:05:00,70.9,62.6,30.16,NNE,20,12.0,15.0,75,0.00,,,0.01,VWS V14.01,2013-02-09 16:05:00,
2013-02-09 10:10:00,71.0,62.3,30.16,NE,53,11.0,15.0,74,0.00,,,0.01,VWS V14.01,2013-02-09 16:10:00,
2013-02-09 10:15:00,70.9,61.8,30.16,North,355,7.0,17.0,73,0.00,,,0.01,VWS V14.01,2013-02-09 16:15:00,
2013-02-09 10:20:00,70.8,62.1,30.16,North,350,9.0,17.0,74,0.00,,,0.01,VWS V14.01,2013-02-09 16:20:00,
2013-02-09 10:25:00,70.7,62.4,30.16,North,350,5.0,17.0,75,0.00,,,0.01,VWS V14.01,2013-02-09 16:25:00,
2013-02-09 10:30:00,70.7,62.4,30.16,North,351,12.0,12.0,75,0.00,,,0.01,VWS V14.01,2013-02-09 16:30:00,
2013-02-09 10:35:00,71.2,62.9,30.16,NNE,19,8.0,13.0,75,0.00,,,0.01,VWS V14.01,2013-02-09 16:35:00,
2013-02-09 10:40:00,71.2,62.5,30.16,North,359,11.0,17.0,74,0.00,,,0.01,VWS V14.01,2013-02-09 16:40:00,
2013-02-09 10:45:00,71.2,62.9,30.16,NNE,33,10.0,17.0,75,0.00,,,0.01,VWS V14.01,2013-02-09 16:45:00,
2013-02-09 10:50:00,71.4,62.7,30.16,NW,304,6.0,17.0,74,0.00,,,0.01,VWS V14.01,2013-02-09 16:50:00,
2013-02-09 10:55:00,71.2,62.5,30.16,NE,40,7.0,18.0,74,0.00,,,0.01,VWS V14.01,2013-02-09 16:55:00,
2013-02-09 11:00:00,71.3,62.6,30.16,NNE,23,16.0,16.0,74,0.00,,,0.01,VWS V14.01,2013-02-09 17:00:00,
2013-02-09 11:05:00,71.2,62.9,30.16,North,354,5.0,17.0,75,0.00,,,0.01,VWS V14.01,2013-02-09 17:05:00,
2013-02-09 11:10:00,71.3,63.0,30.16,NNE,15,14.0,17.0,75,0.00,,,0.01,VWS V14.01,2013-02-09 17:10:00,
2013-02-09 11:15:00,70.9,62.6,30.16,NNE,24,11.0,17.0,75,0.00,,,0.01,VWS V14.01,2013-02-09 17:15:00,
2013-02-09 11:20:00,71.2,62.5,30.16,North,6,17.0,18.0,74,0.00,,,0.01,VWS V14.01,2013-02-09 17:20:00,
2013-02-09 11:25:00,71.0,62.7,30.16,NE,49,13.0,18.0,75,0.00,,,0.01,VWS V14.01,2013-02-09 17:25:00,
2013-02-09 11:30:00,71.1,63.2,30.16,NNE,26,8.0,8.0,76,0.00,,,0.01,VWS V14.01,2013-02-09 17:30:00,
2013-02-09 11:35:00,71.6,62.5,30.16,North,349,13.0,16.0,73,0.00,,,0.01,VWS V14.01,2013-02-09 17:35:00,
2013-02-09 11:40:00,71.3,63.0,30.15,NNE,12,14.0,16.0,75,0.00,,,0.01,VWS V14.01,2013-02-09 17:40:00,
2013-02-09 11:45:00,71.1,62.4,30.15,NE,37,7.0,17.0,74,0.00,,,0.01,VWS V14.01,2013-02-09 17:45:00,
2013-02-09 11:50:00,71.0,62.7,30.15,NNE,12,7.0,17.0,75,0.00,,,0.01,VWS V14.01,2013-02-09 17:50:00,
2013-02-09 11:55:00,71.3,63.0,30.15,ENE,57,4.0,17.0,75,0.00,,,0.01,VWS V14.01,2013-02-09 17:55:00,
2013-02-09 12:00:00,71.4,62.7,30.15,ENE,64,6.0,6.0,74,0.00,,,0.01,VWS V14.01,2013-02-09 18:00:00,
2013-02-09 12:05:00,71.7,62.6,30.14,ENE,61,9.0,13.0,73,0.00,,,0.01,VWS V14.01,2013-02-09 18:05:00,
2013-02-09 12:10:00,71.5,62.8,30.14,North,6,6.0,17.0,74,0.00,,,0.01,VWS V14.01,2013-02-09 18:10:00,
2013-02-09 12:15:00,72.1,63.4,30.14,North,359,7.0,17.0,74,0.00,,,0.01,VWS V14.01,2013-02-09 18:15:00,
2013-02-09 12:20:00,72.0,62.9,30.14,NNE,29,10.0,17.0,73,0.00,,,0.01,VWS V14.01,2013-02-09 18:20:00,
2013-02-09 12:25:00,71.5,62.8,30.14,NNE,16,10.0,17.0,74,0.00,,,0.01,VWS V14.01,2013-02-09 18:25:00,
2013-02-09 12:30:00,71.7,63.0,30.14,North,8,5.0,8.0,74,0.00,,,0.01,VWS V14.01,2013-02-09 18:30:00,
2013-02-09 12:35:00,72.2,63.1,30.14,NNE,30,12.0,14.0,73,0.00,,,0.01,VWS V14.01,2013-02-09 18:35:00,
2013-02-09 12:40:00,71.7,62.6,30.14,NE,40,6.0,16.0,73,0.00,,,0.01,VWS V14.01,2013-02-09 18:40:00,
2013-02-09 12:45:00,71.6,62.9,30.13,NNW,338,6.0,16.0,74,0.00,,,0.01,VWS V14.01,2013-02-09 18:45:00,
2013-02-09 12:50:00,71.8,62.7,30.13,NE,40,9.0,16.0,73,0.00,,,0.01,VWS V14.01,2013-02-09 18:50:00,
2013-02-09 12:55:00,71.5,62.8,30.13,ENE,59,6.0,17.0,74,0.00,,,0.01,VWS V14.01,2013-02-09 18:55:00,
2013-02-09 13:00:00,71.8,63.5,30.13,North,1,8.0,8.0,75,0.00,,,0.01,VWS V14.01,2013-02-09 19:00:00,
2013-02-09 13:05:00,71.6,62.9,30.13,NNE,22,9.0,16.0,74,0.00,,,0.01,VWS V14.01,2013-02-09 19:05:00,
2013-02-09 13:10:00,71.7,63.0,30.13,North,9,12.0,16.0,74,0.00,,,0.01,VWS V14.01,2013-02-09 19:10:00,
2013-02-09 13:15:00,71.4,63.1,30.13,North,6,10.0,16.0,75,0.00,,,0.01,VWS V14.01,2013-02-09 19:15:00,
2013-02-09 13:20:00,71.5,62.8,30.13,NW,314,9.0,16.0,74,0.00,,,0.01,VWS V14.01,2013-02-09 19:20:00,
2013-02-09 13:25:00,71.7,63.4,30.14,NNW,337,7.0,16.0,75,0.00,,,0.01,VWS V14.01,2013-02-09 19:25:00,
2013-02-09 13:30:00,72.0,63.3,30.13,NE,34,7.0,9.0,74,0.00,,,0.01,VWS V14.01,2013-02-09 19:30:00,
2013-02-09 13:35:00,71.6,62.9,30.13,North,351,10.0,15.0,74,0.00,,,0.01,VWS V14.01,2013-02-09 19:35:00,
2013-02-09 13:40:00,71.8,63.5,30.14,NE,51,9.0,16.0,75,0.00,,,0.01,VWS V14.01,2013-02-09 19:40:00,
2013-02-09 13:45:00,71.7,63.0,30.13,NNW,339,10.0,16.0,74,0.00,,,0.01,VWS V14.01,2013-02-09 19:45:00,
2013-02-09 13:50:00,71.9,63.2,30.13,NE,51,6.0,16.0,74,0.00,,,0.01,VWS V14.01,2013-02-09 19:50:00,
2013-02-09 13:55:00,71.9,63.5,30.13,NNE,33,5.0,16.0,75,0.00,,,0.01,VWS V14.01,2013-02-09 19:55:00,
2013-02-09 14:00:00,71.7,63.4,30.13,NNE,22,9.0,11.0,75,0.00,,,0.01,VWS V14.01,2013-02-09 20:00:00,
2013-02-09 14:05:00,71.5,62.8,30.13,NNW,330,9.0,15.0,74,0.00,,,0.01,VWS V14.01,2013-02-09 20:05:00,
2013-02-09 14:10:00,71.5,63.2,30.13,NNE,22,4.0,15.0,75,0.00,,,0.01,VWS V14.01,2013-02-09 20:10:00,
2013-02-09 14:15:00,71.8,63.1,30.13,WNW,293,7.0,15.0,74,0.00,,,0.01,VWS V14.01,2013-02-09 20:15:00,
2013-02-09 14:20:00,71.6,62.9,30.13,NNE,13,6.0,18.0,74,0.00,,,0.01,VWS V14.01,2013-02-09 20:20:00,
2013-02-09 14:25:00,71.7,63.0,30.13,NE,37,5.0,18.0,74,0.00,,,0.01,VWS V14.01,2013-02-09 20:25:00,
2013-02-09 14:30:00,71.7,63.0,30.13,NW,321,4.0,15.0,74,0.00,,,0.01,VWS V14.01,2013-02-09 20:30:00,
2013-02-09 14:35:00,71.7,63.4,30.13,NE,48,11.0,15.0,75,0.00,,,0.01,VWS V14.01,2013-02-09 20:35:00,
2013-02-09 14:40:00,71.3,63.0,30.13,NE,53,7.0,17.0,75,0.00,,,0.01,VWS V14.01,2013-02-09 20:40:00,
2013-02-09 14:45:00,71.4,63.1,30.13,ENE,58,8.0,17.0,75,0.00,,,0.01,VWS V14.01,2013-02-09 20:45:00,
2013-02-09 14:50:00,71.4,63.1,30.13,NW,316,7.0,17.0,75,0.00,,,0.01,VWS V14.01,2013-02-09 20:50:00,
2013-02-09 14:55:00,71.5,63.2,30.14,NNW,332,8.0,17.0,75,0.00,,,0.01,VWS V14.01,2013-02-09 20:55:00,
2013-02-09 15:00:00,71.6,63.3,30.14,NNE,15,14.0,14.0,75,0.00,,,0.01,VWS V14.01,2013-02-09 21:00:00,
2013-02-09 15:05:00,71.2,62.9,30.13,ENE,65,9.0,16.0,75,0.00,,,0.01,VWS V14.01,2013-02-09 21:05:00,
2013-02-09 15:10:00,71.2,62.5,30.13,North,9,14.0,17.0,74,0.00,,,0.01,VWS V14.01,2013-02-09 21:10:00,
2013-02-09 15:15:00,71.4,62.7,30.13,NE,37,8.0,17.0,74,0.00,,,0.01,VWS V14.01,2013-02-09 21:15:00,
2013-02-09 15:20:00,71.4,62.3,30.13,NE,52,12.0,17.0,73,0.00,,,0.01,VWS V14.01,2013-02-09 21:20:00,
2013-02-09 15:25:00,71.4,63.1,30.13,NNE,13,10.0,17.0,75,0.00,,,0.01,VWS V14.01,2013-02-09 21:25:00,
2013-02-09 15:30:00,71.3,63.0,30.13,North,354,4.0,13.0,75,0.00,,,0.01,VWS V14.01,2013-02-09 21:30:00,
2013-02-09 15:35:00,71.2,62.9,30.13,North,358,13.0,14.0,75,0.00,,,0.01,VWS V14.01,2013-02-09 21:35:00,
2013-02-09 15:40:00,71.2,62.9,30.14,NNE,18,9.0,15.0,75,0.00,,,0.01,VWS V14.01,2013-02-09 21:40:00,
2013-02-09 15:45:00,71.1,62.8,30.14,NNW,332,6.0,15.0,75,0.00,,,0.01,VWS V14.01,2013-02-09 21:45:00,
2013-02-09 15:50:00,71.2,62.9,30.14,NNW,342,8.0,16.0,75,0.00,,,0.01,VWS V14.01,2013-02-09 21:50:00,
2013-02-09 15:55:00,71.2,62.9,30.14,NE,49,7.0,16.0,75,0.00,,,0.01,VWS V14.01,2013-02-09 21:55:00,
2013-02-09 16:00:00,71.2,62.9,30.14,NNE,29,10.0,12.0,75,0.00,,,0.01,VWS V14.01,2013-02-09 22:00:00,
2013-02-09 16:05:00,71.2,63.3,30.14,NE,36,9.0,13.0,76,0.00,,,0.01,VWS V14.01,2013-02-09 22:05:00,
2013-02-09 16:10:00,71.1,62.8,30.14,NNE,29,10.0,15.0,75,0.00,,,0.01,VWS V14.01,2013-02-09 22:10:00,
2013-02-09 16:15:00,71.0,63.1,30.14,NNE,13,6.0,15.0,76,0.00,,,0.01,VWS V14.01,2013-02-09 22:15:00,
2013-02-09 16:20:00,71.0,63.1,30.14,NNE,12,3.0,15.0,76,0.00,,,0.01,VWS V14.01,2013-02-09 22:20:00,
2013-02-09 16:25:00,71.1,62.8,30.14,NE,43,8.0,15.0,75,0.00,,,0.01,VWS V14.01,2013-02-09 22:25:00,
2013-02-09 16:30:00,71.2,62.9,30.14,NNE,29,4.0,6.0,75,0.00,,,0.01,VWS V14.01,2013-02-09 22:30:00,
2013-02-09 16:35:00,71.3,61.8,30.14,ENE,59,4.0,9.0,72,0.00,,,0.01,VWS V14.01,2013-02-09 22:35:00,
2013-02-09 16:40:00,71.3,61.8,30.14,NE,44,3.0,10.0,72,0.00,,,0.01,VWS V14.01,2013-02-09 22:40:00,
2013-02-09 16:45:00,71.3,62.2,30.14,NNE,33,6.0,10.0,73,0.00,,,0.01,VWS V14.01,2013-02-09 22:45:00,
2013-02-09 16:50:00,71.2,60.9,30.14,NE,37,11.0,11.0,70,0.00,,,0.01,VWS V14.01,2013-02-09 22:50:00,
2013-02-09 16:55:00,71.0,60.3,30.14,NE,40,4.0,11.0,69,0.00,,,0.01,VWS V14.01,2013-02-09 22:55:00,
2013-02-09 17:00:00,70.8,60.5,30.14,NE,50,8.0,8.0,70,0.00,,,0.01,VWS V14.01,2013-02-09 23:00:00,
2013-02-09 17:05:00,70.7,60.5,30.14,NE,50,5.0,9.0,70,0.00,,,0.01,VWS V14.01,2013-02-09 23:05:00,
2013-02-09 17:10:00,70.5,60.7,30.14,NE,46,9.0,9.0,71,0.00,,,0.01,VWS V14.01,2013-02-09 23:10:00,
2013-02-09 17:15:00,70.3,60.5,30.14,ENE,58,4.0,9.0,71,0.00,,,0.01,VWS V14.01,2013-02-09 23:15:00,
2013-02-09 17:20:00,70.2,60.0,30.14,NE,44,1.0,11.0,70,0.00,,,0.01,VWS V14.01,2013-02-09 23:20:00,
2013-02-09 17:25:00,70.1,59.9,30.14,NE,39,3.0,11.0,70,0.00,,,0.01,VWS V14.01,2013-02-09 23:25:00,
2013-02-09 17:30:00,69.9,60.1,30.14,NE,53,6.0,7.0,71,0.00,,,0.01,VWS V14.01,2013-02-09 23:30:00,
2013-02-09 17:35:00,69.9,59.7,30.14,NE,41,4.0,8.0,70,0.00,,,0.01,VWS V14.01,2013-02-09 23:35:00,
2013-02-09 17:40:00,70.0,59.4,30.14,ENE,58,6.0,10.0,69,0.00,,,0.01,VWS V14.01,2013-02-09 23:40:00,
2013-02-09 17:45:00,69.9,59.3,30.14,NE,42,2.0,10.0,69,0.00,,,0.01,VWS V14.01,2013-02-09 23:45:00,
2013-02-09 17:50:00,69.8,59.2,30.15,NNE,29,4.0,10.0,69,0.00,,,0.01,VWS V14.01,2013-02-09 23:50:00,
2013-02-09 17:55:00,69.9,59.3,30.15,ENE,65,6.0,10.0,69,0.00,,,0.01,VWS V14.01,2013-02-09 23:55:00,
2013-02-09 18:00:00,69.9,58.9,30.15,NE,51,5.0,5.0,68,0.00,,,0.01,VWS V14.01,2013-02-10 00:00:00,
2013-02-09 18:05:00,69.9,58.9,30.15,ENE,63,5.0,10.0,68,0.00,,,0.01,VWS V14.01,2013-02-10 00:05:00,
2013-02-09 18:10:00,69.9,58.9,30.15,NNE,33,5.0,10.0,68,0.00,,,0.01,VWS V14.01,2013-02-10 00:10:00,
2013-02-09 18:15:00,69.9,58.9,30.15,ENE,61,6.0,10.0,68,0.00,,,0.01,VWS V14.01,2013-02-10 00:15:00,
2013-02-09 18:20:00,69.9,58.5,30.15,NE,46,7.0,10.0,67,0.00,,,0.01,VWS V14.01,2013-02-10 00:20:00,
2013-02-09 18:25:00,70.0,58.5,30.15,NE,43,5.0,10.0,67,0.00,,,0.01,VWS V14.01,2013-02-10 00:25:00,
2013-02-09 18:30:00,70.0,58.5,30.15,NE,42,3.0,5.0,67,0.00,,,0.01,VWS V14.01,2013-02-10 00:30:00,
2013-02-09 18:35:00,69.9,58.9,30.15,East,87,8.0,11.0,68,0.00,,,0.01,VWS V14.01,2013-02-10 00:35:00,
2013-02-09 18:40:00,69.9,58.9,30.15,East,82,5.0,11.0,68,0.00,,,0.01,VWS V14.01,2013-02-10 00:40:00,
2013-02-09 18:45:00,69.9,59.3,30.15,ENE,64,4.0,11.0,69,0.00,,,0.01,VWS V14.01,2013-02-10 00:45:00,
2013-02-09 18:50:00,69.9,59.7,30.15,NE,56,5.0,11.0,70,0.00,,,0.01,VWS V14.01,2013-02-10 00:50:00,
2013-02-09 18:55:00,69.9,60.5,30.15,ENE,68,8.0,11.0,72,0.00,,,0.01,VWS V14.01,2013-02-10 00:55:00,
2013-02-09 19:00:00,69.9,60.9,30.15,ENE,61,12.0,12.0,73,0.00,,,0.01,VWS V14.01,2013-02-10 01:00:00,
2013-02-09 19:05:00,70.1,60.7,30.16,NE,46,6.0,12.0,72,0.00,,,0.01,VWS V14.01,2013-02-10 01:05:00,
2013-02-09 19:10:00,70.0,61.0,30.16,NE,50,6.0,12.0,73,0.00,,,0.01,VWS V14.01,2013-02-10 01:10:00,
2013-02-09 19:15:00,70.1,60.7,30.16,East,85,8.0,12.0,72,0.00,,,0.01,VWS V14.01,2013-02-10 01:15:00,
2013-02-09 19:20:00,70.1,60.3,30.16,ENE,65,6.0,14.0,71,0.00,,,0.01,VWS V14.01,2013-02-10 01:20:00,
2013-02-09 19:25:00,70.2,60.8,30.16,NE,54,7.0,14.0,72,0.00,,,0.01,VWS V14.01,2013-02-10 01:25:00,
2013-02-09 19:30:00,70.1,61.0,30.16,NE,34,5.0,10.0,73,0.00,,,0.01,VWS V14.01,2013-02-10 01:30:00,
2013-02-09 19:35:00,70.1,60.7,30.16,ENE,70,6.0,11.0,72,0.00,,,0.01,VWS V14.01,2013-02-10 01:35:00,
2013-02-09 19:40:00,70.1,60.7,30.17,East,84,2.0,11.0,72,0.00,,,0.01,VWS V14.01,2013-02-10 01:40:00,
2013-02-09 19:45:00,70.0,60.6,30.17,ENE,58,7.0,11.0,72,0.00,,,0.01,VWS V14.01,2013-02-10 01:45:00,
2013-02-09 19:50:00,70.1,60.7,30.17,ENE,68,11.0,11.0,72,0.00,,,0.01,VWS V14.01,2013-02-10 01:50:00,
2013-02-09 19:55:00,70.2,60.8,30.17,East,81,6.0,13.0,72,0.00,,,0.01,VWS V14.01,2013-02-10 01:55:00,
2013-02-09 20:00:00,70.2,61.5,30.17,NE,52,5.0,10.0,74,0.00,,,0.01,VWS V14.01,2013-02-10 02:00:00,
2013-02-09 20:05:00,70.3,62.0,30.17,East,79,11.0,15.0,75,0.00,,,0.01,VWS V14.01,2013-02-10 02:05:00,
2013-02-09 20:10:00,70.2,62.7,30.17,NE,54,15.0,15.0,77,0.00,,,0.01,VWS V14.01,2013-02-10 02:10:00,
2013-02-09 20:15:00,69.9,62.7,30.17,NE,54,6.0,16.0,78,0.00,,,0.01,VWS V14.01,2013-02-10 02:15:00,
2013-02-09 20:20:00,69.7,62.5,30.17,ENE,70,11.0,16.0,78,0.00,,,0.01,VWS V14.01,2013-02-10 02:20:00,
2013-02-09 20:25:00,69.7,62.5,30.17,ENE,77,11.0,16.0,78,0.00,,,0.01,VWS V14.01,2013-02-10 02:25:00,
2013-02-09 20:30:00,69.7,62.9,30.17,East,84,9.0,13.0,79,0.00,,,0.01,VWS V14.01,2013-02-10 02:30:00,
2013-02-09 20:35:00,69.6,62.4,30.17,ENE,68,11.0,16.0,78,0.00,,,0.01,VWS V14.01,2013-02-10 02:35:00,
2013-02-09 20:40:00,69.6,62.4,30.17,NE,50,9.0,16.0,78,0.00,,,0.01,VWS V14.01,2013-02-10 02:40:00,
2013-02-09 20:45:00,69.6,62.4,30.17,ENE,58,10.0,18.0,78,0.00,,,0.01,VWS V14.01,2013-02-10 02:45:00,
2013-02-09 20:50:00,69.5,62.3,30.17,NNE,29,6.0,18.0,78,0.00,,,0.01,VWS V14.01,2013-02-10 02:50:00,
2013-02-09 20:55:00,69.5,62.3,30.18,ENE,57,10.0,18.0,78,0.00,,,0.01,VWS V14.01,2013-02-10 02:55:00,
2013-02-09 21:00:00,69.5,62.3,30.18,ENE,75,12.0,12.0,78,0.00,,,0.01,VWS V14.01,2013-02-10 03:00:00,
2013-02-09 21:05:00,69.6,62.4,30.18,ENE,72,8.0,14.0,78,0.00,,,0.01,VWS V14.01,2013-02-10 03:05:00,
2013-02-09 21:10:00,69.5,62.3,30.18,ENE,58,10.0,14.0,78,0.00,,,0.01,VWS V14.01,2013-02-10 03:10:00,
2013-02-09 21:15:00,69.6,62.4,30.18,ENE,65,5.0,15.0,78,0.00,,,0.01,VWS V14.01,2013-02-10 03:15:00,
2013-02-09 21:20:00,69.6,62.1,30.18,ENE,67,7.0,15.0,77,0.00,,,0.01,VWS V14.01,2013-02-10 03:20:00,
2013-02-09 21:25:00,69.7,62.2,30.18,NE,53,7.0,16.0,77,0.00,,,0.01,VWS V14.01,2013-02-10 03:25:00,
2013-02-09 21:30:00,69.8,62.3,30.18,ENE,59,3.0,8.0,77,0.00,,,0.01,VWS V14.01,2013-02-10 03:30:00,
2013-02-09 21:35:00,69.9,62.4,30.18,ENE,74,7.0,14.0,77,0.00,,,0.01,VWS V14.01,2013-02-10 03:35:00,
2013-02-09 21:40:00,69.9,62.4,30.19,ENE,67,10.0,15.0,77,0.00,,,0.01,VWS V14.01,2013-02-10 03:40:00,
2013-02-09 21:45:00,69.8,61.9,30.18,ENE,65,13.0,15.0,76,0.00,,,0.01,VWS V14.01,2013-02-10 03:45:00,
2013-02-09 21:50:00,69.8,61.5,30.18,ENE,68,11.0,15.0,75,0.00,,,0.01,VWS V14.01,2013-02-10 03:50:00,
2013-02-09 21:55:00,69.8,61.9,30.19,NE,54,10.0,17.0,76,0.00,,,0.01,VWS V14.01,2013-02-10 03:55:00,
2013-02-09 22:00:00,69.7,61.8,30.18,ENE,72,9.0,13.0,76,0.00,,,0.01,VWS V14.01,2013-02-10 04:00:00,
2013-02-09 22:05:00,69.6,61.7,30.18,ENE,77,8.0,14.0,76,0.00,,,0.01,VWS V14.01,2013-02-10 04:05:00,
2013-02-09 22:10:00,69.6,61.3,30.18,ENE,77,4.0,17.0,75,0.00,,,0.01,VWS V14.01,2013-02-10 04:10:00,
2013-02-09 22:15:00,69.6,61.7,30.18,NE,54,8.0,17.0,76,0.00,,,0.01,VWS V14.01,2013-02-10 04:15:00,
2013-02-09 22:20:00,69.6,61.7,30.18,NE,39,10.0,17.0,76,0.00,,,0.01,VWS V14.01,2013-02-10 04:20:00,
2013-02-09 22:25:00,69.7,62.2,30.18,ENE,59,5.0,17.0,77,0.00,,,0.01,VWS V14.01,2013-02-10 04:25:00,
2013-02-09 22:30:00,69.6,61.7,30.18,East,84,6.0,13.0,76,0.00,,,0.01,VWS V14.01,2013-02-10 04:30:00,
2013-02-09 22:35:00,69.6,61.3,30.18,East,90,11.0,16.0,75,0.00,,,0.01,VWS V14.01,2013-02-10 04:35:00,
2013-02-09 22:40:00,69.6,61.7,30.18,East,86,8.0,16.0,76,0.00,,,0.01,VWS V14.01,2013-02-10 04:40:00,
2013-02-09 22:45:00,69.6,61.7,30.18,NE,54,6.0,16.0,76,0.00,,,0.01,VWS V14.01,2013-02-10 04:45:00,
2013-02-09 22:50:00,69.5,61.6,30.18,NE,51,8.0,16.0,76,0.00,,,0.01,VWS V14.01,2013-02-10 04:50:00,
2013-02-09 22:55:00,69.6,61.3,30.18,ENE,58,9.0,17.0,75,0.00,,,0.01,VWS V14.01,2013-02-10 04:55:00,
2013-02-09 23:00:00,69.6,61.3,30.18,ENE,77,7.0,8.0,75,0.00,,,0.00,VWS V14.01,2013-02-10 05:00:00,
2013-02-09 23:05:00,69.6,61.3,30.19,NE,53,8.0,13.0,75,0.00,,,0.00,VWS V14.01,2013-02-10 05:05:00,
2013-02-09 23:10:00,69.5,61.2,30.19,East,96,6.0,13.0,75,0.00,,,0.00,VWS V14.01,2013-02-10 05:10:00,
2013-02-09 23:15:00,69.4,61.1,30.18,East,82,7.0,14.0,75,0.00,,,0.00,VWS V14.01,2013-02-10 05:15:00,
2013-02-09 23:20:00,69.5,60.9,30.19,ENE,60,7.0,16.0,74,0.00,,,0.00,VWS V14.01,2013-02-10 05:20:00,
2013-02-09 23:25:00,69.5,61.2,30.18,East,84,15.0,16.0,75,0.00,,,0.00,VWS V14.01,2013-02-10 05:25:00,
2013-02-09 23:30:00,69.5,61.2,30.19,ENE,58,13.0,13.0,75,0.00,,,0.00,VWS V14.01,2013-02-10 05:30:00,
2013-02-09 23:35:00,69.4,61.1,30.18,ESE,108,7.0,13.0,75,0.00,,,0.00,VWS V14.01,2013-02-10 05:35:00,
2013-02-09 23:40:00,69.4,60.8,30.18,East,79,13.0,15.0,74,0.00,,,0.00,VWS V14.01,2013-02-10 05:40:00,
2013-02-09 23:45:00,69.5,61.2,30.18,NE,53,9.0,15.0,75,0.00,,,0.00,VWS V14.01,2013-02-10 05:45:00,
2013-02-09 23:50:00,69.4,61.1,30.18,ENE,71,13.0,15.0,75,0.00,,,0.00,VWS V14.01,2013-02-10 05:50:00,
2013-02-09 23:55:00,69.5,61.2,30.18,NE,53,10.0,18.0,75,0.00,,,0.00,VWS V14.01,2013-02-10 05:55:00,